createdAt,value
2022-12-08T00:01:33.579Z,1.20
2022-12-08T00:04:05.737Z,1.10
2022-12-08T00:07:00.860Z,0.90
2022-12-08T00:10:10.346Z,0.80
2022-12-08T00:12:47.475Z,1.15
2022-12-08T00:15:19.024Z,1.08
2022-12-08T00:17:50.706Z,1.25
2022-12-08T00:20:20.180Z,1.30
2022-12-08T00:22:48.716Z,1.60
2022-12-08T00:25:26.357Z,1.50
2022-12-08T00:27:57.541Z,2.00
2022-12-08T00:30:25.957Z,1.50
2022-12-08T00:33:08.915Z,1.95
2022-12-08T00:35:43.222Z,1.77
2022-12-08T00:38:23.241Z,2.20
2022-12-08T00:40:54.724Z,1.67
2022-12-08T00:43:23.206Z,1.67
2022-12-08T00:45:52.881Z,1.63
2022-12-08T00:48:21.595Z,1.42
2022-12-08T00:50:49.992Z,1.85
2022-12-08T00:53:22.357Z,1.60
2022-12-08T00:55:54.657Z,1.55
2022-12-08T00:58:23.383Z,1.50
2022-12-08T01:00:52.040Z,1.27
2022-12-08T01:03:24.047Z,1.70
2022-12-08T01:08:52.559Z,1.60
2022-12-08T01:11:21.750Z,1.45
2022-12-08T01:13:53.272Z,1.30
2022-12-08T01:16:26.989Z,1.10
2022-12-08T01:18:55.989Z,0.93
2022-12-08T01:21:30.254Z,1.20
2022-12-08T01:24:04.720Z,1.55
2022-12-08T01:26:33.287Z,1.80
2022-12-08T01:29:10.936Z,1.88
2022-12-08T01:31:42.296Z,2.00
2022-12-08T01:34:16.156Z,1.65
2022-12-08T01:36:48.803Z,1.95
2022-12-08T01:39:20.496Z,1.80
2022-12-08T01:41:49.531Z,1.42
2022-12-08T01:44:23.404Z,1.45
2022-12-08T01:46:54.931Z,1.90
2022-12-08T01:49:52.133Z,1.80
2022-12-08T01:55:21.745Z,2.70
2022-12-08T02:11:42.117Z,1.40
2022-12-08T02:14:23.889Z,1.60
2022-12-08T02:18:02.595Z,1.40
2022-12-08T02:20:54.460Z,1.75
2022-12-08T02:23:58.927Z,1.70
2022-12-08T02:27:03.428Z,2.20
2022-12-08T02:36:56.424Z,2.70
2022-12-08T02:40:01.772Z,3.10
2022-12-08T02:43:04.900Z,3.20
2022-12-08T02:45:50.194Z,2.75
2022-12-08T02:48:18.560Z,2.80
2022-12-08T02:50:49.679Z,3.20
2022-12-08T02:53:20.833Z,3.13
2022-12-08T02:56:24.059Z,2.80
2022-12-08T02:59:25.286Z,3.38
2022-12-08T03:02:12.784Z,6.22
2022-12-08T03:05:19.308Z,6.30
2022-12-08T03:07:58.889Z,5.60
2022-12-08T03:10:27.203Z,5.78
2022-12-08T03:13:06.965Z,3.35
2022-12-08T03:15:48.567Z,3.47
2022-12-08T03:20:54.752Z,2.72
2022-12-08T03:23:23.804Z,2.72
2022-12-08T03:26:24.858Z,2.45
2022-12-08T03:28:59.142Z,3.13
2022-12-08T03:31:30.052Z,2.92
2022-12-08T03:34:08.504Z,2.55
2022-12-08T03:36:40.087Z,3.08
2022-12-08T03:41:44.611Z,3.03
2022-12-08T03:44:15.336Z,3.10
2022-12-08T03:46:46.277Z,2.90
2022-12-08T03:49:14.702Z,3.30
2022-12-08T03:51:49.359Z,3.55
2022-12-08T03:54:17.700Z,3.63
2022-12-08T03:56:46.101Z,3.55
2022-12-08T03:59:17.432Z,3.80
2022-12-08T04:01:45.832Z,4.03
2022-12-08T04:04:14.186Z,3.72
2022-12-08T04:06:42.794Z,3.00
2022-12-08T04:09:11.062Z,4.47
2022-12-08T04:11:39.565Z,4.30
2022-12-08T04:14:08.174Z,4.32
2022-12-08T04:16:36.566Z,4.32
2022-12-08T04:19:04.913Z,3.90
2022-12-08T04:21:33.246Z,2.88
2022-12-08T04:24:01.795Z,2.88
2022-12-08T04:26:30.447Z,2.60
2022-12-08T04:28:58.864Z,2.50
2022-12-08T04:31:27.217Z,2.80
2022-12-08T04:33:55.577Z,3.92
2022-12-08T04:36:23.912Z,3.50
2022-12-08T04:38:52.845Z,3.38
2022-12-08T04:41:23.243Z,3.97
2022-12-08T04:43:51.631Z,3.72
2022-12-08T04:46:20.029Z,4.32
2022-12-08T04:48:48.413Z,3.40
2022-12-08T04:51:18.682Z,3.58
2022-12-08T04:53:48.053Z,3.63
2022-12-08T04:56:20.299Z,3.53
2022-12-08T04:58:48.713Z,3.63
2022-12-08T05:01:17.167Z,3.50
2022-12-08T05:03:45.669Z,3.53
2022-12-08T05:06:15.460Z,3.75
2022-12-08T05:08:46.539Z,4.05
2022-12-08T05:11:15.501Z,3.97
2022-12-08T05:13:47.005Z,3.90
2022-12-08T05:18:45.124Z,4.03
2022-12-08T05:21:16.087Z,4.45
2022-12-08T05:23:44.424Z,4.55
2022-12-08T05:26:12.664Z,4.97
2022-12-08T05:28:45.441Z,3.85
2022-12-08T05:31:15.863Z,4.20
2022-12-08T05:33:45.298Z,4.22
2022-12-08T05:36:18.666Z,4.68
2022-12-08T05:38:47.819Z,4.70
2022-12-08T05:41:21.623Z,5.82
2022-12-08T05:43:50.439Z,4.15
2022-12-08T05:46:18.928Z,5.35
2022-12-08T05:48:50.119Z,4.65
2022-12-08T05:51:24.407Z,5.07
2022-12-08T05:53:53.943Z,4.43
2022-12-08T05:56:23.058Z,4.53
2022-12-08T05:58:51.883Z,4.20
2022-12-08T06:01:31.841Z,4.88
2022-12-08T06:04:02.431Z,4.78
2022-12-08T06:06:31.457Z,3.70
2022-12-08T06:08:59.790Z,3.78
2022-12-08T06:11:30.766Z,4.85
2022-12-08T06:13:59.675Z,4.85
2022-12-08T06:16:29.053Z,4.95
2022-12-08T06:18:58.357Z,4.30
2022-12-08T06:21:26.717Z,5.00
2022-12-08T06:23:57.208Z,4.68
2022-12-08T06:26:25.808Z,3.90
2022-12-08T06:28:54.472Z,4.05
2022-12-08T06:31:25.724Z,3.67
2022-12-08T06:33:55.983Z,3.92
2022-12-08T06:36:28.663Z,3.85
2022-12-08T06:38:57.568Z,3.72
2022-12-08T06:41:26.030Z,3.85
2022-12-08T06:43:58.354Z,3.92
2022-12-08T06:46:26.654Z,4.00
2022-12-08T06:48:55.207Z,3.50
2022-12-08T06:51:26.614Z,4.20
2022-12-08T06:53:54.967Z,4.10
2022-12-08T06:56:25.403Z,3.70
2022-12-08T06:58:53.716Z,3.70
2022-12-08T07:01:22.281Z,3.70
2022-12-08T07:03:50.785Z,3.28
2022-12-08T07:06:25.034Z,3.30
2022-12-08T07:08:53.840Z,3.38
2022-12-08T07:11:22.802Z,3.78
2022-12-08T07:13:51.982Z,3.67
2022-12-08T07:16:20.392Z,3.65
2022-12-08T07:18:48.659Z,3.47
2022-12-08T07:21:17.693Z,3.50
2022-12-08T07:23:56.017Z,3.53
2022-12-08T07:26:27.695Z,3.17
2022-12-08T07:28:57.729Z,3.58
2022-12-08T07:31:27.619Z,3.90
2022-12-08T07:33:59.687Z,3.70
2022-12-08T07:36:31.951Z,3.67
2022-12-08T07:39:01.055Z,3.28
2022-12-08T07:41:29.401Z,3.55
2022-12-08T07:43:58.382Z,3.45
2022-12-08T07:46:27.661Z,3.03
2022-12-08T07:48:56.550Z,4.40
2022-12-08T07:51:26.059Z,3.33
2022-12-08T07:53:55.145Z,3.58
2022-12-08T07:56:24.746Z,3.50
2022-12-08T07:58:52.981Z,3.60
2022-12-08T08:01:24.421Z,3.40
2022-12-08T08:03:53.416Z,3.05
2022-12-08T08:06:21.819Z,3.53
2022-12-08T08:08:50.023Z,3.50
2022-12-08T08:11:21.276Z,2.60
2022-12-08T08:13:52.873Z,2.72
2022-12-08T08:16:21.726Z,2.50
2022-12-08T08:18:52.140Z,2.50
2022-12-08T08:21:44.243Z,2.75
2022-12-08T08:24:10.242Z,2.60
2022-12-08T08:26:41.011Z,2.80
2022-12-08T08:29:09.365Z,3.00
2022-12-08T08:31:37.841Z,2.42
2022-12-08T08:34:07.142Z,2.72
2022-12-08T08:36:36.020Z,2.20
2022-12-08T08:39:05.433Z,2.70
2022-12-08T08:41:34.175Z,2.65
2022-12-08T08:44:02.645Z,2.00
2022-12-08T08:46:30.937Z,2.17
2022-12-08T08:48:59.313Z,2.17
2022-12-08T08:51:27.573Z,2.20
2022-12-08T08:53:55.837Z,2.08
2022-12-08T08:56:24.351Z,2.17
2022-12-08T08:58:54.098Z,2.15
2022-12-08T09:01:29.008Z,2.40
2022-12-08T09:03:58.042Z,2.08
2022-12-08T09:06:26.835Z,2.97
2022-12-08T09:08:55.280Z,3.05
2022-12-08T09:11:24.319Z,2.88
2022-12-08T09:13:54.259Z,2.88
2022-12-08T09:16:23.755Z,2.95
2022-12-08T09:18:52.186Z,2.20
2022-12-08T09:21:27.019Z,2.08
2022-12-08T09:23:57.621Z,2.03
2022-12-08T09:26:27.326Z,1.98
2022-12-08T09:28:56.579Z,2.13
2022-12-08T09:31:25.827Z,2.05
2022-12-08T09:33:54.382Z,2.20
2022-12-08T09:36:23.426Z,2.20
2022-12-08T09:38:53.064Z,2.47
2022-12-08T09:41:30.832Z,2.45
2022-12-08T09:44:16.439Z,2.67
2022-12-08T09:46:44.972Z,2.53
2022-12-08T09:49:17.863Z,2.83
2022-12-08T09:51:49.368Z,2.72
2022-12-08T09:56:50.931Z,2.58
2022-12-08T09:59:31.654Z,2.58
2022-12-08T10:02:02.193Z,2.53
2022-12-08T10:04:34.927Z,2.40
2022-12-08T10:07:36.793Z,2.70
2022-12-08T10:10:51.695Z,2.35
2022-12-08T10:13:56.422Z,2.03
2022-12-08T10:16:40.212Z,2.72
2022-12-08T10:19:20.149Z,2.00
2022-12-08T10:21:48.723Z,2.13
2022-12-08T10:24:42.432Z,2.10
2022-12-08T10:27:14.309Z,2.80
2022-12-08T10:29:42.831Z,2.50
2022-12-08T10:32:23.761Z,2.75
2022-12-08T10:35:05.132Z,2.07
2022-12-08T10:37:34.785Z,2.17
2022-12-08T10:40:15.216Z,2.03
2022-12-08T10:45:45.865Z,2.88
2022-12-08T10:48:20.260Z,1.90
2022-12-08T10:50:56.608Z,1.95
2022-12-08T10:53:28.945Z,2.50
2022-12-08T10:56:02.739Z,2.10
2022-12-08T10:58:34.770Z,2.15
2022-12-08T11:01:25.896Z,2.20
2022-12-08T11:03:58.830Z,2.28
2022-12-08T11:06:37.099Z,1.98
2022-12-08T11:09:23.055Z,1.98
2022-12-08T11:12:07.661Z,1.98
2022-12-08T11:15:03.995Z,2.10
2022-12-08T11:17:44.798Z,1.88
2022-12-08T11:20:13.000Z,1.70
2022-12-08T11:22:43.941Z,1.83
2022-12-08T11:25:19.264Z,2.35
2022-12-08T11:27:50.660Z,2.10
2022-12-08T11:30:29.100Z,3.15
2022-12-08T11:33:02.477Z,2.10
2022-12-08T11:35:38.822Z,2.30
2022-12-08T11:38:22.969Z,2.72
2022-12-08T11:41:00.077Z,2.08
2022-12-08T11:43:45.621Z,2.15
2022-12-08T11:46:20.971Z,2.30
2022-12-08T11:48:49.570Z,2.40
2022-12-08T11:51:45.320Z,2.10
2022-12-08T11:54:25.394Z,2.20
2022-12-08T11:56:59.869Z,2.28
2022-12-08T11:59:39.251Z,2.00
2022-12-08T12:02:18.353Z,2.17
2022-12-08T12:06:03.325Z,2.15
2022-12-08T12:08:27.907Z,2.15
2022-12-08T12:11:34.339Z,2.03
2022-12-08T12:14:13.203Z,1.80
2022-12-08T12:17:15.246Z,2.38
2022-12-08T12:22:23.992Z,2.05
2022-12-08T12:24:54.215Z,2.47
2022-12-08T12:27:33.628Z,2.20
2022-12-08T12:30:07.802Z,2.10
2022-12-08T12:32:55.565Z,2.00
2022-12-08T12:35:58.144Z,2.20
2022-12-08T12:38:53.278Z,2.22
2022-12-08T12:41:47.575Z,1.98
2022-12-08T12:44:16.693Z,2.00
2022-12-08T12:46:49.235Z,2.05
2022-12-08T12:49:41.581Z,2.05
2022-12-08T12:52:27.226Z,2.15
2022-12-08T12:54:58.558Z,2.00
2022-12-08T12:57:38.243Z,1.92
2022-12-08T13:00:09.445Z,2.08
2022-12-08T13:02:38.903Z,1.52
2022-12-08T13:05:18.122Z,1.90
2022-12-08T13:08:09.547Z,2.20
2022-12-08T13:10:49.578Z,1.98
2022-12-08T13:13:27.539Z,1.70
2022-12-08T13:16:22.274Z,1.77
2022-12-08T13:21:39.824Z,2.00
2022-12-08T13:28:00.919Z,2.10
2022-12-08T13:30:54.012Z,2.08
2022-12-08T13:33:27.659Z,2.03
2022-12-08T13:36:34.054Z,1.85
2022-12-08T13:39:04.127Z,1.77
2022-12-08T13:41:49.253Z,2.33
2022-12-08T13:47:33.826Z,2.72
2022-12-08T13:50:55.697Z,2.65
2022-12-08T13:58:49.793Z,3.35
2022-12-08T14:01:24.044Z,3.70
2022-12-08T14:04:33.749Z,3.38
2022-12-08T14:06:49.872Z,3.00
2022-12-08T14:09:23.982Z,3.20
2022-12-08T14:12:04.559Z,3.28
2022-12-08T14:15:10.872Z,2.90
2022-12-08T14:17:29.752Z,3.53
2022-12-08T14:20:25.193Z,2.40
2022-12-08T14:22:54.537Z,2.30
2022-12-08T14:25:25.202Z,2.58
2022-12-08T14:28:02.675Z,1.80
2022-12-08T14:30:34.001Z,2.22
2022-12-08T14:33:04.892Z,2.05
2022-12-08T14:35:38.389Z,2.63
2022-12-08T14:38:27.286Z,3.40
2022-12-08T14:41:10.005Z,3.00
2022-12-08T14:43:38.335Z,4.30
2022-12-08T14:46:21.696Z,3.60
2022-12-08T14:48:50.118Z,3.13
2022-12-08T14:51:24.474Z,3.80
2022-12-08T14:54:01.319Z,2.97
2022-12-08T14:56:56.657Z,2.97
2022-12-08T14:59:32.607Z,2.80
2022-12-08T15:02:29.489Z,2.65
2022-12-08T15:05:11.972Z,2.90
2022-12-08T15:08:07.314Z,2.92
2022-12-08T15:10:52.077Z,3.00
2022-12-08T15:13:26.218Z,3.55
2022-12-08T15:16:31.563Z,3.42
2022-12-08T15:19:29.330Z,3.67
2022-12-08T15:22:00.756Z,3.10
2022-12-08T15:24:32.016Z,3.67
2022-12-08T15:27:00.949Z,3.97
2022-12-08T15:29:31.207Z,3.50
2022-12-08T15:32:02.372Z,3.83
2022-12-08T15:34:32.472Z,4.63
2022-12-08T15:37:00.827Z,3.83
2022-12-08T15:39:38.112Z,2.92
2022-12-08T15:42:13.295Z,3.13
2022-12-08T15:44:44.908Z,3.60
2022-12-08T15:49:56.088Z,3.47
2022-12-08T15:52:26.235Z,3.20
2022-12-08T15:54:55.655Z,2.80
2022-12-08T16:04:19.904Z,4.03
2022-12-08T16:09:21.992Z,4.45
2022-12-08T16:12:10.122Z,4.22
2022-12-08T16:15:47.339Z,4.90
2022-12-08T16:17:29.862Z,5.00
2022-12-08T16:19:58.540Z,5.47
2022-12-08T16:22:52.741Z,6.22
2022-12-08T16:25:20.000Z,7.90
2022-12-08T16:28:29.591Z,7.13
2022-12-08T16:33:22.025Z,6.55
2022-12-08T16:35:50.364Z,6.50
2022-12-08T16:38:18.728Z,4.93
2022-12-08T16:41:08.066Z,5.47
2022-12-08T16:43:36.817Z,5.13
2022-12-08T16:46:05.846Z,4.50
2022-12-08T16:48:34.197Z,5.60
2022-12-08T16:51:05.271Z,6.97
2022-12-08T16:53:33.477Z,6.22
2022-12-08T16:56:01.830Z,6.35
2022-12-08T16:58:30.931Z,6.80
2022-12-08T17:00:59.266Z,6.55
2022-12-08T17:03:27.658Z,9.23
2022-12-08T17:05:55.899Z,6.95
2022-12-08T17:08:24.201Z,7.65
2022-12-08T17:11:08.072Z,9.50
2022-12-08T17:13:42.391Z,7.50
2022-12-08T17:16:14.519Z,8.20
2022-12-08T17:18:43.095Z,8.95
2022-12-08T17:21:13.194Z,9.48
2022-12-08T17:23:42.363Z,11.50
2022-12-08T17:26:11.729Z,9.18
2022-12-08T17:28:59.625Z,9.85
2022-12-08T17:31:30.370Z,8.27
2022-12-08T17:34:11.895Z,11.20
2022-12-08T17:36:40.166Z,11.57
2022-12-08T17:39:13.459Z,10.63
2022-12-08T17:41:46.251Z,11.48
2022-12-08T17:44:17.212Z,9.93
2022-12-08T17:46:52.143Z,11.02
2022-12-08T17:49:26.760Z,5.53
2022-12-08T17:51:58.503Z,5.50
2022-12-08T17:54:27.673Z,5.40
2022-12-08T17:56:59.377Z,5.72
2022-12-08T17:59:29.398Z,5.20
2022-12-08T18:01:58.618Z,5.38
2022-12-08T18:04:27.865Z,9.30
2022-12-08T18:06:56.426Z,5.63
2022-12-08T18:09:24.776Z,5.85
2022-12-08T18:11:53.196Z,6.18
2022-12-08T18:14:21.751Z,5.47
2022-12-08T18:16:50.243Z,5.88
2022-12-08T18:19:19.151Z,5.60
2022-12-08T18:21:47.559Z,5.57
2022-12-08T18:24:24.655Z,5.28
2022-12-08T18:26:53.823Z,4.70
2022-12-08T18:29:23.554Z,7.57
2022-12-08T18:31:52.698Z,5.78
2022-12-08T18:34:21.523Z,5.50
2022-12-08T18:36:50.056Z,5.47
2022-12-08T18:39:37.065Z,6.57
2022-12-08T18:42:23.715Z,6.57
2022-12-08T18:45:00.073Z,7.22
2022-12-08T18:47:28.689Z,7.80
2022-12-08T18:49:57.261Z,8.30
2022-12-08T18:52:31.573Z,8.23
2022-12-08T18:55:08.064Z,8.18
2022-12-08T18:57:39.620Z,6.85
2022-12-08T19:02:42.276Z,5.32
2022-12-08T19:05:18.963Z,4.03
2022-12-08T19:08:04.103Z,3.85
2022-12-08T19:10:38.796Z,4.78
2022-12-08T19:13:08.785Z,3.63
2022-12-08T19:15:37.184Z,3.75
2022-12-08T19:18:05.844Z,3.92
2022-12-08T19:20:34.148Z,4.15
2022-12-08T19:23:02.396Z,3.70
2022-12-08T19:25:34.343Z,3.70
2022-12-08T19:28:02.701Z,3.72
2022-12-08T19:30:34.366Z,4.22
2022-12-08T19:35:34.152Z,3.25
2022-12-08T19:38:05.619Z,3.88
2022-12-08T19:44:01.229Z,4.10
2022-12-08T19:46:30.120Z,4.53
2022-12-08T19:48:59.319Z,5.40
2022-12-08T19:51:30.686Z,5.45
2022-12-08T19:54:02.129Z,5.90
2022-12-08T19:56:32.856Z,5.55
2022-12-08T19:59:01.356Z,4.95
2022-12-08T20:01:30.726Z,5.60
2022-12-08T20:04:02.185Z,7.28
2022-12-08T20:09:01.566Z,6.22
2022-12-08T20:11:32.629Z,6.85
2022-12-08T20:14:01.347Z,6.72
2022-12-08T20:17:01.273Z,7.18
2022-12-08T20:19:30.127Z,5.90
2022-12-08T20:21:58.597Z,6.97
2022-12-08T20:25:03.738Z,6.45
2022-12-08T20:27:34.369Z,5.85
2022-12-08T20:30:02.723Z,5.97
2022-12-08T20:32:31.225Z,5.78
2022-12-08T20:34:59.842Z,6.45
2022-12-08T20:37:28.418Z,5.03
2022-12-08T20:39:56.848Z,4.50
2022-12-08T20:42:25.312Z,4.60
2022-12-08T20:44:53.979Z,3.75
2022-12-08T20:47:22.509Z,3.40
2022-12-08T20:49:51.506Z,3.88
2022-12-08T20:52:20.146Z,4.30
2022-12-08T20:54:48.675Z,3.03
2022-12-08T20:57:17.010Z,2.47
2022-12-08T20:59:45.608Z,2.78
2022-12-08T21:02:14.015Z,2.70
2022-12-08T21:04:42.919Z,2.88
2022-12-08T21:07:11.549Z,2.22
2022-12-08T21:09:39.847Z,3.13
2022-12-08T21:12:08.751Z,2.40
2022-12-08T21:14:37.377Z,2.85
2022-12-08T21:17:06.136Z,2.25
2022-12-08T21:19:34.816Z,2.10
2022-12-08T21:22:03.418Z,2.38
2022-12-08T21:24:34.360Z,1.80
2022-12-08T21:27:03.270Z,2.25
2022-12-08T21:29:31.902Z,1.90
2022-12-08T21:32:01.497Z,2.15
2022-12-08T21:34:34.963Z,1.33
2022-12-08T21:37:03.797Z,1.20
2022-12-08T21:39:32.836Z,1.60
2022-12-08T21:42:22.722Z,1.08
2022-12-08T21:44:51.548Z,0.50
2022-12-08T21:47:20.188Z,0.50
2022-12-08T21:49:51.175Z,0.50
2022-12-08T21:52:19.947Z,0.52
2022-12-08T21:54:50.348Z,0.68
2022-12-08T21:57:18.968Z,0.32
2022-12-08T21:59:47.459Z,0.65
2022-12-08T22:02:22.344Z,0.50
2022-12-08T22:04:51.532Z,0.60
2022-12-08T22:07:21.685Z,0.30
2022-12-08T22:09:50.245Z,0.50
2022-12-08T22:12:18.972Z,0.50
2022-12-08T22:14:47.924Z,0.40
2022-12-08T22:17:17.590Z,0.50
2022-12-08T22:19:46.437Z,0.45
2022-12-08T22:22:14.766Z,0.43
2022-12-08T22:24:43.275Z,0.50
2022-12-08T22:27:11.635Z,0.10
2022-12-08T22:29:39.978Z,0.40
2022-12-08T22:32:08.243Z,0.35
2022-12-08T22:34:36.757Z,0.50
2022-12-08T22:37:05.244Z,0.70
2022-12-08T22:39:33.699Z,0.10
2022-12-08T22:42:01.939Z,0.70
2022-12-08T22:44:30.669Z,0.40
2022-12-08T22:46:58.973Z,0.38
2022-12-08T22:49:27.640Z,0.30
2022-12-08T22:51:55.977Z,0.55
2022-12-08T22:54:24.359Z,0.50
2022-12-08T22:56:52.756Z,0.60
2022-12-08T22:59:21.028Z,0.80
2022-12-08T23:01:49.427Z,0.75
2022-12-08T23:04:18.511Z,0.38
2022-12-08T23:06:46.995Z,0.40
2022-12-08T23:09:15.929Z,0.55
2022-12-08T23:11:44.893Z,0.70
2022-12-08T23:14:13.124Z,0.60
2022-12-08T23:16:47.206Z,0.43
2022-12-08T23:19:16.131Z,0.43
2022-12-08T23:21:44.472Z,0.70
2022-12-08T23:24:13.025Z,0.70
2022-12-08T23:26:43.864Z,0.93
2022-12-08T23:29:12.202Z,0.60
2022-12-08T23:31:59.162Z,0.75
2022-12-08T23:34:33.648Z,0.80
2022-12-08T23:37:02.183Z,0.70
2022-12-08T23:39:35.663Z,0.40
2022-12-08T23:42:06.685Z,0.75
2022-12-08T23:44:38.090Z,0.68
2022-12-08T23:47:06.624Z,0.60
2022-12-08T23:52:34.003Z,0.80
